Time;durP1;ratioP1;P1;durP2;ratioP2;P2;SDS_P1;SDS_P2;PMS_P1;PMS_P2;Temp;Humidity;BMP_temperature;BMP_pressure;BME280_temperature;BME280_humidity;BME280_pressure;Samples;Min_cycle;Max_cycle;Signal;HPM_P1;HPM_P2
2022/08/13 00:01:20;;;;;;;5.75;5.03;;;18.70;99.90;;;;;;4974656;28;20094;-87
2022/08/13 00:03:53;;;;;;;5.03;4.63;;;18.60;99.90;;;;;;4989079;28;20101;-86
2022/08/13 00:09:10;;;;;;;5.50;4.80;;;18.40;99.90;;;;;;4939518;28;20062;-87
2022/08/13 00:14:23;;;;;;;6.75;5.20;;;18.20;99.90;;;;;;4957714;28;20422;-87
2022/08/13 00:16:54;;;;;;;6.63;5.05;;;18.10;99.90;;;;;;4957403;28;20058;-87
2022/08/13 00:19:20;;;;;;;7.47;4.90;;;18.10;99.90;;;;;;4973071;28;20055;-88
2022/08/13 00:21:50;;;;;;;5.68;5.13;;;18.10;99.90;;;;;;4973473;28;20054;-87
2022/08/13 00:24:15;;;;;;;6.60;5.15;;;18.10;99.90;;;;;;4974418;28;20050;-88
2022/08/13 00:26:41;;;;;;;9.90;5.20;;;18.10;99.90;;;;;;4974878;28;20502;-87
2022/08/13 00:29:08;;;;;;;5.82;5.25;;;18.00;99.90;;;;;;4957650;28;20507;-87
2022/08/13 00:31:34;;;;;;;7.18;5.18;;;18.00;99.90;;;;;;4989660;28;20055;-87
2022/08/13 00:34:00;;;;;;;7.97;5.85;;;18.00;99.90;;;;;;4974016;28;20055;-87
2022/08/13 00:36:26;;;;;;;6.47;5.38;;;18.00;99.90;;;;;;4973136;28;20054;-88
2022/08/13 00:38:53;;;;;;;5.78;4.72;;;17.90;99.90;;;;;;4973051;28;20109;-87
2022/08/13 00:41:37;;;;;;;6.18;4.88;;;17.90;99.90;;;;;;4974063;28;20103;-87
2022/08/13 00:44:07;;;;;;;;;;;17.90;99.90;;;;;;4973684;28;20043;-88
2022/08/13 00:46:33;;;;;;;9.32;5.45;;;17.90;99.90;;;;;;4956914;28;19926;-86
2022/08/13 00:48:58;;;;;;;7.00;6.28;;;17.90;99.90;;;;;;4973090;28;20129;-86
2022/08/13 00:51:25;;;;;;;7.07;5.35;;;17.90;99.90;;;;;;4972820;28;20086;-86
2022/08/13 00:53:51;;;;;;;8.95;5.53;;;17.80;99.90;;;;;;4974255;28;20051;-88
2022/08/13 00:56:17;;;;;;;5.63;5.13;;;17.80;99.90;;;;;;4984275;28;20071;-90
2022/08/13 00:58:43;;;;;;;9.25;5.95;;;17.70;99.90;;;;;;4996394;28;20055;-85
2022/08/13 01:01:09;;;;;;;6.60;5.50;;;17.60;99.90;;;;;;4982638;28;20051;-85
2022/08/13 01:03:35;;;;;;;8.20;5.60;;;17.60;99.90;;;;;;4975038;28;20051;-85
2022/08/13 01:06:02;;;;;;;6.60;5.57;;;17.60;99.90;;;;;;4957063;28;20059;-87
2022/08/13 01:08:34;;;;;;;7.38;5.53;;;17.60;99.90;;;;;;4973376;28;20055;-86
2022/08/13 01:11:02;;;;;;;6.32;5.72;;;17.60;99.90;;;;;;4989537;28;20468;-86
2022/08/13 01:13:28;;;;;;;7.53;5.45;;;17.60;99.90;;;;;;4973161;28;20150;-86
2022/08/13 01:15:54;;;;;;;7.00;5.75;;;17.50;99.90;;;;;;4989396;28;20043;-87
2022/08/13 01:18:22;;;;;;;6.43;5.88;;;17.50;99.90;;;;;;4956607;28;20134;-86
2022/08/13 01:21:00;;;;;;;6.25;5.22;;;17.50;99.90;;;;;;4989139;28;20483;-87
2022/08/13 01:23:28;;;;;;;5.50;5.00;;;17.50;99.90;;;;;;4973282;28;20475;-86
2022/08/13 01:25:54;;;;;;;7.63;5.60;;;17.40;99.90;;;;;;4975357;28;20050;-87
2022/08/13 01:28:22;;;;;;;8.48;5.53;;;17.40;99.90;;;;;;4995831;28;20078;-87
2022/08/13 01:30:50;;;;;;;9.10;6.25;;;17.40;99.90;;;;;;4996296;28;20046;-87
2022/08/13 01:33:17;;;;;;;7.70;6.63;;;17.40;99.90;;;;;;4995211;28;20043;-88
2022/08/13 01:35:44;;;;;;;7.28;6.20;;;17.30;99.90;;;;;;5003970;28;20106;-86
2022/08/13 01:38:10;;;;;;;6.80;5.82;;;17.30;99.90;;;;;;4986943;28;20047;-85
2022/08/13 01:40:36;;;;;;;8.20;6.70;;;17.30;99.90;;;;;;4978890;28;20047;-85
2022/08/13 01:43:01;;;;;;;10.27;6.35;;;17.30;99.90;;;;;;4960623;28;20049;-85
2022/08/13 01:45:29;;;;;;;8.43;6.95;;;17.30;99.90;;;;;;4976367;28;20117;-86
2022/08/13 01:50:38;;;;;;;6.90;6.22;;;17.20;99.90;;;;;;4976712;28;20055;-86
2022/08/13 01:53:13;;;;;;;8.90;6.55;;;17.20;99.90;;;;;;4959742;28;20093;-85
2022/08/13 01:55:47;;;;;;;8.82;7.00;;;17.20;99.90;;;;;;4960624;28;20055;-85
2022/08/13 01:58:19;;;;;;;8.00;7.03;;;17.10;99.90;;;;;;4992158;28;20435;-86
2022/08/13 02:00:45;;;;;;;7.68;6.70;;;17.10;99.90;;;;;;4975798;28;20047;-86
2022/08/13 02:03:13;;;;;;;7.72;6.93;;;17.10;99.90;;;;;;4975663;28;20470;-86
2022/08/13 02:05:39;;;;;;;8.65;6.72;;;17.00;99.90;;;;;;4975690;28;20133;-86
2022/08/13 02:08:06;;;;;;;7.53;6.82;;;17.00;99.90;;;;;;4975871;28;20125;-86
2022/08/13 02:10:32;;;;;;;10.25;7.05;;;17.10;99.90;;;;;;4975410;28;20121;-86
2022/08/13 02:12:57;;;;;;;8.85;7.00;;;17.00;99.90;;;;;;4959408;28;20186;-86
2022/08/13 02:15:23;;;;;;;9.35;6.90;;;17.00;99.90;;;;;;4975824;28;20051;-87
2022/08/13 02:17:49;;;;;;;10.73;9.10;;;16.90;99.90;;;;;;4963354;28;20047;-85
2022/08/13 02:20:17;;;;;;;9.93;8.05;;;17.00;99.90;;;;;;4972613;28;20075;-82
2022/08/13 02:22:52;;;;;;;9.25;8.27;;;17.00;99.90;;;;;;4976551;28;20081;-85
2022/08/13 02:25:20;;;;;;;11.40;10.30;;;17.00;99.90;;;;;;4977179;28;20051;-86
2022/08/13 02:27:55;;;;;;;11.50;9.43;;;17.00;99.90;;;;;;4977000;28;20058;-86
2022/08/13 02:30:21;;;;;;;10.93;9.93;;;17.00;99.90;;;;;;4992211;28;20062;-86
2022/08/13 02:32:48;;;;;;;10.40;9.40;;;17.00;99.90;;;;;;4991441;28;20105;-86
2022/08/13 02:35:15;;;;;;;9.77;8.80;;;17.00;99.90;;;;;;4975790;28;20051;-86
2022/08/13 02:37:40;;;;;;;9.93;8.93;;;17.00;99.90;;;;;;4975173;28;20054;-86
2022/08/13 02:41:38;;;;;;;9.48;8.55;;;17.00;99.90;;;;;;4959424;28;20372;-85
2022/08/13 02:42:53;;;;;;;11.43;8.73;;;16.90;99.90;;;;;;4971811;28;20053;-86
2022/08/13 02:45:21;;;;;;;13.52;8.60;;;16.80;99.90;;;;;;4995276;28;20052;-86
2022/08/13 02:47:48;;;;;;;11.63;8.23;;;16.80;99.90;;;;;;4977897;28;20490;-88
2022/08/13 02:50:14;;;;;;;10.80;7.95;;;16.70;99.90;;;;;;4977955;28;20084;-87
2022/08/13 02:52:40;;;;;;;9.27;7.65;;;16.70;99.90;;;;;;4962074;28;20058;-86
2022/08/13 02:55:07;;;;;;;10.80;8.35;;;16.60;99.90;;;;;;4995206;28;20483;-86
2022/08/13 02:57:33;;;;;;;9.38;7.82;;;16.60;99.90;;;;;;4962235;28;20056;-86
2022/08/13 02:59:59;;;;;;;9.40;8.43;;;16.50;99.90;;;;;;4978747;28;20498;-87
2022/08/13 03:02:25;;;;;;;15.98;8.77;;;16.50;99.90;;;;;;4985672;28;20031;-89
2022/08/13 03:04:50;;;;;;;8.95;8.05;;;16.50;99.90;;;;;;5018207;28;20045;-91
2022/08/13 03:07:18;;;;;;;10.52;7.80;;;16.50;99.90;;;;;;4997425;28;20034;-87
2022/08/13 03:09:44;;;;;;;8.98;8.02;;;16.40;99.90;;;;;;5010849;28;20144;-85
2022/08/13 03:12:10;;;;;;;9.80;7.93;;;16.40;99.90;;;;;;4986519;28;20054;-86
2022/08/13 03:14:36;;;;;;;10.43;8.10;;;16.40;99.90;;;;;;4997164;28;20058;-88
2022/08/13 03:17:02;;;;;;;9.95;8.25;;;16.40;99.90;;;;;;4946842;28;20080;-87
2022/08/13 03:19:28;;;;;;;10.63;8.60;;;16.30;99.90;;;;;;4995657;28;20410;-86
2022/08/13 03:21:54;;;;;;;10.38;8.90;;;16.40;99.90;;;;;;4962274;28;20054;-86
2022/08/13 03:24:20;;;;;;;13.23;9.05;;;16.40;99.90;;;;;;4961822;28;20065;-87
2022/08/13 03:26:46;;;;;;;11.88;10.00;;;16.40;99.90;;;;;;4945993;28;20574;-87
2022/08/13 03:29:12;;;;;;;13.00;9.07;;;16.30;99.90;;;;;;4977812;28;20046;-87
2022/08/13 03:31:39;;;;;;;13.68;9.13;;;16.20;99.90;;;;;;4963195;28;20513;-87
2022/08/13 03:34:06;;;;;;;10.48;9.25;;;16.20;99.90;;;;;;4979313;28;20054;-86
2022/08/13 03:36:32;;;;;;;9.10;8.20;;;16.10;99.90;;;;;;4982085;28;20108;-88
2022/08/13 03:38:58;;;;;;;11.27;9.45;;;16.10;99.90;;;;;;4947595;28;20054;-87
2022/08/13 03:41:24;;;;;;;14.18;9.30;;;16.10;99.90;;;;;;4964276;28;20065;-87
2022/08/13 03:43:51;;;;;;;10.60;8.25;;;16.10;99.90;;;;;;5010116;28;20050;-85
2022/08/13 03:46:18;;;;;;;10.25;8.68;;;16.10;99.90;;;;;;4997883;28;20054;-85
2022/08/13 03:48:45;;;;;;;13.98;9.30;;;16.00;99.90;;;;;;4981198;28;20181;-86
2022/08/13 03:51:11;;;;;;;9.90;8.68;;;16.00;99.90;;;;;;5000629;28;20090;-87
2022/08/13 03:53:38;;;;;;;9.90;8.68;;;16.00;99.90;;;;;;4977192;28;20042;-87
2022/08/13 03:56:05;;;;;;;10.80;8.65;;;16.00;99.90;;;;;;4977620;28;20085;-88
2022/08/13 03:58:30;;;;;;;9.50;8.25;;;16.00;99.90;;;;;;4977285;28;20053;-85
2022/08/13 04:00:56;;;;;;;11.35;8.60;;;15.90;99.90;;;;;;4994216;28;20042;-85
2022/08/13 04:03:30;;;;;;;11.98;9.30;;;15.90;99.90;;;;;;4994348;28;20490;-86
2022/08/13 04:06:04;;;;;;;10.40;9.00;;;15.90;99.90;;;;;;4960643;28;20057;-86
2022/08/13 04:08:35;;;;;;;10.10;8.88;;;15.90;99.90;;;;;;4960953;28;20061;-86
2022/08/13 04:11:04;;;;;;;11.75;8.27;;;15.90;99.90;;;;;;4977581;28;20492;-85
2022/08/13 04:13:36;;;;;;;9.55;8.48;;;15.90;99.90;;;;;;4945814;28;20064;-85
2022/08/13 04:16:11;;;;;;;13.07;8.77;;;15.90;99.90;;;;;;4945701;28;20135;-86
2022/08/13 04:18:38;;;;;;;10.52;7.95;;;15.90;99.90;;;;;;4960773;28;20046;-85
2022/08/13 04:21:08;;;;;;;12.32;8.48;;;15.80;99.90;;;;;;4961130;28;20104;-85
2022/08/13 04:23:39;;;;;;;10.07;8.80;;;15.80;99.90;;;;;;4960909;28;20050;-85
2022/08/13 04:26:05;;;;;;;10.90;8.60;;;15.90;99.90;;;;;;4961908;28;20462;-85
2022/08/13 04:28:31;;;;;;;13.45;8.82;;;15.90;99.90;;;;;;4960746;28;20138;-85
2022/08/13 04:30:58;;;;;;;11.82;8.80;;;15.90;99.90;;;;;;4976380;28;20499;-86
2022/08/13 04:33:24;;;;;;;9.40;7.78;;;15.90;99.90;;;;;;4993769;28;20051;-85
2022/08/13 04:35:50;;;;;;;10.85;8.70;;;15.90;99.90;;;;;;4994377;28;20093;-85
2022/08/13 04:38:17;;;;;;;11.63;8.20;;;16.00;99.90;;;;;;4981644;28;20069;-86
2022/08/13 04:40:44;;;;;;;8.93;7.93;;;16.00;99.90;;;;;;4999940;28;20030;-90
2022/08/13 04:43:10;;;;;;;10.27;8.43;;;16.10;99.90;;;;;;5007525;28;20054;-86
2022/08/13 04:45:36;;;;;;;11.43;8.32;;;16.40;99.90;;;;;;4967021;28;20121;-86
2022/08/13 04:48:12;;;;;;;11.13;7.97;;;16.90;99.90;;;;;;4977264;28;20053;-86
2022/08/13 04:50:39;;;;;;;9.60;7.70;;;17.40;99.90;;;;;;4994078;28;20050;-86
2022/08/13 04:53:06;;;;;;;8.13;7.32;;;18.10;99.90;;;;;;4960132;28;20046;-86
2022/08/13 04:55:32;;;;;;;10.65;6.72;;;18.90;99.90;;;;;;4977338;28;20086;-85
2022/08/13 04:57:57;;;;;;;11.00;8.02;;;19.40;99.90;;;;;;4976280;28;20589;-85
2022/08/13 05:00:24;;;;;;;8.15;7.35;;;19.80;99.90;;;;;;4960284;28;20393;-85
2022/08/13 05:02:52;;;;;;;7.75;6.40;;;19.80;99.90;;;;;;4977645;28;20077;-87
2022/08/13 05:05:21;;;;;;;7.82;6.90;;;20.40;99.90;;;;;;4996491;28;20113;-85
2022/08/13 05:07:49;;;;;;;9.93;7.00;;;20.50;99.90;;;;;;4996407;28;20102;-86
2022/08/13 05:10:20;;;;;;;6.22;5.63;;;21.30;99.90;;;;;;5011051;28;20466;-86
2022/08/13 05:12:49;;;;;;;8.25;6.70;;;21.00;99.90;;;;;;4963930;28;20466;-86
2022/08/13 05:15:14;;;;;;;7.18;6.38;;;21.60;99.90;;;;;;4961610;28;20055;-86
2022/08/13 05:17:43;;;;;;;7.45;6.38;;;21.80;99.90;;;;;;4962027;28;20046;-89
2022/08/13 05:20:13;;;;;;;7.50;6.28;;;22.20;99.90;;;;;;4964932;28;20152;-87
2022/08/13 05:22:39;;;;;;;8.55;6.35;;;22.70;99.90;;;;;;4977236;28;20043;-87
2022/08/13 05:25:05;;;;;;;6.65;6.05;;;22.60;99.90;;;;;;4976800;28;20061;-86
2022/08/13 05:27:31;;;;;;;6.63;6.05;;;23.30;99.90;;;;;;4978408;28;20491;-85
2022/08/13 05:29:58;;;;;;;6.95;6.30;;;23.70;99.90;;;;;;4977922;28;20047;-85
2022/08/13 05:32:25;;;;;;;9.25;6.00;;;24.30;99.90;;;;;;4976685;28;20081;-84
2022/08/13 05:34:51;;;;;;;6.85;6.20;;;24.60;99.90;;;;;;4959561;28;20069;-86
2022/08/13 05:37:17;;;;;;;11.10;6.70;;;24.80;99.90;;;;;;4977590;28;20138;-86
2022/08/13 05:39:43;;;;;;;6.38;5.78;;;25.10;99.90;;;;;;4976595;28;20129;-86
2022/08/13 05:42:10;;;;;;;8.40;6.03;;;25.10;99.90;;;;;;4975988;28;20043;-86
2022/08/13 05:44:36;;;;;;;7.70;5.93;;;25.50;99.90;;;;;;4976695;28;20051;-86
2022/08/13 05:47:02;;;;;;;10.60;6.22;;;25.30;99.40;;;;;;4976107;28;20050;-86
2022/08/13 05:49:28;;;;;;;8.07;6.22;;;25.50;99.90;;;;;;4977180;28;20126;-86
2022/08/13 05:51:54;;;;;;;6.90;6.15;;;25.50;99.20;;;;;;4992466;28;20130;-86
2022/08/13 05:54:20;;;;;;;7.60;5.90;;;26.00;99.50;;;;;;4976712;28;20114;-87
2022/08/13 05:56:45;;;;;;;10.40;6.10;;;25.80;98.30;;;;;;4976551;28;20058;-87
2022/08/13 06:03:24;;;;;;;9.95;6.30;;;26.20;99.10;;;;;;4976698;28;20137;-87
2022/08/13 06:04:41;;;;;;;6.95;5.88;;;26.60;99.10;;;;;;4962370;28;20050;-86
2022/08/13 06:07:09;;;;;;;7.38;5.85;;;26.10;98.00;;;;;;4977699;28;20131;-86
2022/08/13 06:09:35;;;;;;;8.25;5.80;;;26.80;98.70;;;;;;4996573;28;20057;-89
2022/08/13 06:12:01;;;;;;;6.63;5.97;;;27.50;98.10;;;;;;5008047;28;20048;-89
2022/08/13 06:14:27;;;;;;;7.75;5.72;;;27.80;97.60;;;;;;5016461;28;20074;-88
2022/08/13 06:16:52;;;;;;;9.68;5.72;;;27.90;96.60;;;;;;4994340;28;20490;-89
2022/08/13 06:19:24;;;;;;;7.47;5.55;;;28.00;96.50;;;;;;4970579;28;20050;-87
2022/08/13 06:21:49;;;;;;;6.85;5.45;;;28.50;96.80;;;;;;4982456;28;20046;-88
2022/08/13 06:24:15;;;;;;;5.72;5.15;;;28.80;96.60;;;;;;4963246;28;20133;-86
2022/08/13 06:26:41;;;;;;;6.00;5.40;;;29.20;95.70;;;;;;4963841;28;20050;-86
2022/08/13 06:29:07;;;;;;;9.57;5.75;;;29.40;95.20;;;;;;5002993;28;20144;-84
2022/08/13 06:31:33;;;;;;;6.68;5.03;;;29.50;95.00;;;;;;4998265;28;20474;-84
2022/08/13 06:33:59;;;;;;;7.78;5.53;;;29.00;95.10;;;;;;4990340;28;20046;-86
2022/08/13 06:36:28;;;;;;;6.15;5.63;;;29.40;95.00;;;;;;4964425;28;20112;-87
2022/08/13 06:38:54;;;;;;;7.13;5.57;;;29.60;95.00;;;;;;4982076;28;20042;-87
2022/08/13 06:41:20;;;;;;;6.30;5.80;;;29.20;95.20;;;;;;4979759;28;20057;-86
2022/08/13 06:43:51;;;;;;;6.35;4.90;;;29.00;95.00;;;;;;4978102;28;20459;-87
2022/08/13 06:46:22;;;;;;;5.70;5.20;;;28.40;95.30;;;;;;4962671;28;20696;-87
2022/08/13 06:48:48;;;;;;;5.82;5.22;;;29.30;95.20;;;;;;4995159;28;20461;-88
2022/08/13 06:51:14;;;;;;;5.63;5.00;;;29.20;95.00;;;;;;4962846;28;20050;-88
2022/08/13 06:53:41;;;;;;;6.72;4.80;;;29.50;94.80;;;;;;4977915;28;20046;-87
2022/08/13 06:56:19;;;;;;;6.90;4.63;;;29.70;95.10;;;;;;4977678;28;20533;-88
2022/08/13 06:58:49;;;;;;;5.43;4.57;;;30.40;94.00;;;;;;4961932;28;20058;-87
2022/08/13 07:01:19;;;;;;;6.22;4.40;;;30.40;94.20;;;;;;4977091;28;20050;-87
2022/08/13 07:03:46;;;;;;;4.50;4.00;;;30.10;93.80;;;;;;4994750;28;20078;-88
2022/08/13 07:06:33;;;;;;;8.25;4.30;;;30.30;93.70;;;;;;4978098;28;20549;-88
2022/08/13 07:09:01;;;;;;;6.97;4.28;;;30.30;93.80;;;;;;4995548;28;20050;-92
2022/08/13 07:11:28;;;;;;;5.07;4.43;;;31.00;93.70;;;;;;4994962;28;20115;-87
2022/08/13 07:13:58;;;;;;;4.72;3.80;;;31.60;92.90;;;;;;4994684;28;20096;-88
2022/08/13 07:16:25;;;;;;;5.32;3.45;;;31.30;93.40;;;;;;4978188;28;20057;-87
2022/08/13 07:18:51;;;;;;;4.25;3.45;;;31.60;92.60;;;;;;4961028;28;20046;-89
2022/08/13 07:21:19;;;;;;;5.30;3.70;;;31.10;92.80;;;;;;4995078;28;20093;-87
2022/08/13 07:23:45;;;;;;;4.10;3.40;;;31.60;93.00;;;;;;4998674;28;20046;-87
2022/08/13 07:26:13;;;;;;;6.65;3.33;;;31.60;92.80;;;;;;4994754;28;20117;-88
2022/08/13 07:28:40;;;;;;;6.38;2.90;;;31.90;92.40;;;;;;4977389;28;20454;-89
2022/08/13 07:31:06;;;;;;;5.50;2.80;;;32.70;91.80;;;;;;4977083;28;20076;-87
2022/08/13 07:33:36;;;;;;;5.35;2.47;;;32.00;92.00;;;;;;4978495;28;20038;-88
2022/08/13 07:36:06;;;;;;;4.18;2.60;;;32.60;91.50;;;;;;4994528;28;20089;-88
2022/08/13 07:38:33;;;;;;;3.28;2.38;;;32.50;91.60;;;;;;4960946;28;20057;-87
2022/08/13 07:40:59;;;;;;;4.50;2.30;;;32.30;91.90;;;;;;4978018;28;20054;-88
2022/08/13 07:43:24;;;;;;;4.55;2.20;;;31.90;91.40;;;;;;4972509;28;20073;-92
2022/08/13 07:46:02;;;;;;;3.38;2.33;;;32.70;91.20;;;;;;5000752;28;20050;-89
2022/08/13 07:48:30;;;;;;;2.42;2.22;;;32.50;90.70;;;;;;4998396;28;20050;-89
2022/08/13 07:50:57;;;;;;;7.45;2.20;;;32.50;91.10;;;;;;4978771;28;20156;-87
2022/08/13 07:53:23;;;;;;;3.28;2.00;;;32.50;91.30;;;;;;5010451;28;20077;-87
2022/08/13 07:55:49;;;;;;;4.47;2.20;;;33.10;91.10;;;;;;5015213;28;20034;-88
2022/08/13 07:58:15;;;;;;;4.95;2.22;;;32.70;90.50;;;;;;4981672;28;20054;-89
2022/08/13 08:00:45;;;;;;;3.38;1.75;;;32.80;91.10;;;;;;4946455;28;20505;-88
2022/08/13 08:03:12;;;;;;;2.45;2.20;;;33.20;90.10;;;;;;4979083;28;20046;-89
2022/08/13 08:05:38;;;;;;;3.58;2.05;;;33.30;89.70;;;;;;4963140;28;20050;-89
2022/08/13 08:08:04;;;;;;;1.85;1.75;;;32.80;90.00;;;;;;4977952;28;20049;-89
2022/08/13 08:10:30;;;;;;;1.90;1.80;;;32.90;90.30;;;;;;4996234;28;20056;-86
2022/08/13 08:13:00;;;;;;;2.10;1.90;;;33.30;90.00;;;;;;4980548;28;20101;-89
2022/08/13 08:15:27;;;;;;;2.47;1.88;;;33.10;90.10;;;;;;4976468;28;20132;-89
2022/08/13 08:17:57;;;;;;;3.30;1.95;;;33.40;90.10;;;;;;5005679;28;20042;-90
2022/08/13 08:20:23;;;;;;;2.45;1.90;;;33.60;89.90;;;;;;4997816;28;20050;-89
2022/08/13 08:22:49;;;;;;;2.42;1.83;;;34.10;89.70;;;;;;4984845;28;20039;-90
2022/08/13 08:25:16;;;;;;;3.88;1.67;;;34.40;88.60;;;;;;4980586;28;20490;-89
2022/08/13 08:27:42;;;;;;;1.98;1.73;;;34.30;89.10;;;;;;4977095;28;20046;-89
2022/08/13 08:30:08;;;;;;;2.45;1.60;;;34.30;88.30;;;;;;4977372;28;20049;-89
2022/08/13 08:32:35;;;;;;;3.08;1.77;;;34.30;89.00;;;;;;4977475;28;20092;-91
2022/08/13 08:35:01;;;;;;;3.85;1.65;;;34.60;88.00;;;;;;4987779;28;20046;-89
2022/08/13 08:43:01;;;;;;;14.02;2.45;;;34.20;86.30;;;;;;4985468;28;20439;-90
2022/08/13 08:45:27;;;;;;;1.98;1.50;;;34.10;86.90;;;;;;4995056;28;20100;-89
2022/08/13 08:47:53;;;;;;;1.88;1.50;;;34.30;86.40;;;;;;4963278;28;20046;-91
2022/08/13 08:50:24;;;;;;;1.63;1.50;;;33.50;86.50;;;;;;4977256;28;20073;-91
2022/08/13 08:55:37;;;;;;;1.83;1.63;;;33.50;85.80;;;;;;4963609;28;20058;-89
2022/08/13 08:58:04;;;;;;;1.77;1.67;;;33.50;86.70;;;;;;4994757;28;20038;-90
2022/08/13 09:00:30;;;;;;;3.45;1.75;;;33.90;86.20;;;;;;4960435;28;20486;-94
2022/08/13 09:02:56;;;;;;;2.03;1.55;;;34.20;85.10;;;;;;4960051;28;20054;-93
2022/08/13 09:05:22;;;;;;;2.45;1.60;;;34.60;86.30;;;;;;4976930;28;20039;-91
2022/08/13 09:07:49;;;;;;;4.35;1.88;;;34.70;84.70;;;;;;4965164;28;20074;-91
2022/08/13 09:10:16;;;;;;;2.75;1.52;;;34.60;83.70;;;;;;4966984;28;20077;-90
2022/08/13 09:12:43;;;;;;;6.22;1.83;;;34.80;84.40;;;;;;5004068;28;20082;-90
2022/08/13 09:15:15;;;;;;;4.63;1.60;;;34.80;85.10;;;;;;4995153;28;20050;-90
2022/08/13 09:17:41;;;;;;;4.27;1.53;;;34.90;84.80;;;;;;5015761;28;20033;-93
2022/08/13 09:20:12;;;;;;;2.45;1.50;;;34.90;84.30;;;;;;4966933;28;20034;-91
2022/08/13 09:22:40;;;;;;;2.85;1.55;;;34.70;83.60;;;;;;5012013;28;20061;-92
2022/08/13 09:25:06;;;;;;;2.30;1.70;;;35.50;83.20;;;;;;4971754;28;20076;-91
2022/08/13 09:27:34;;;;;;;3.78;1.65;;;35.90;83.20;;;;;;4998143;28;20054;-92
2022/08/13 09:30:02;;;;;;;2.65;1.60;;;35.30;83.60;;;;;;4981037;28;20046;-93
2022/08/13 09:32:29;;;;;;;2.78;1.50;;;35.20;83.60;;;;;;5000889;28;20042;-91
2022/08/13 09:34:54;;;;;;;2.38;1.58;;;35.00;82.70;;;;;;4944650;28;20458;-89
2022/08/13 09:37:20;;;;;;;2.60;1.60;;;34.60;82.60;;;;;;4994558;28;20061;-91
2022/08/13 09:39:52;;;;;;;1.73;1.63;;;34.00;82.70;;;;;;4960950;28;20501;-92
2022/08/13 09:42:26;;;;;;;1.60;1.50;;;34.40;82.90;;;;;;4945328;28;20121;-92
2022/08/13 09:44:56;;;;;;;1.73;1.50;;;34.30;82.40;;;;;;4978655;28;20486;-92
2022/08/13 09:47:23;;;;;;;3.70;2.05;;;34.60;82.60;;;;;;4964158;28;20474;-92
2022/08/13 09:49:48;;;;;;;1.90;1.65;;;34.90;81.80;;;;;;4962351;28;20567;-92
2022/08/13 09:52:15;;;;;;;1.90;1.65;;;35.20;82.20;;;;;;4978170;28;20129;-91
2022/08/13 09:54:41;;;;;;;2.15;1.50;;;35.50;81.40;;;;;;4965096;28;20346;-91
2022/08/13 09:57:08;;;;;;;2.47;1.60;;;35.60;81.30;;;;;;5003141;28;20081;-92
2022/08/13 09:59:35;;;;;;;2.38;1.55;;;35.10;80.80;;;;;;4984111;28;20101;-93
2022/08/13 10:02:09;;;;;;;1.52;1.42;;;35.10;80.40;;;;;;4983087;28;20362;-91
2022/08/13 10:04:38;;;;;;;2.53;1.70;;;35.20;80.80;;;;;;4977259;28;20136;-92
2022/08/13 10:07:05;;;;;;;1.40;1.30;;;35.30;80.30;;;;;;4983080;28;20046;-93
2022/08/13 10:09:33;;;;;;;6.43;1.83;;;35.30;80.00;;;;;;4964587;28;20081;-90
2022/08/13 10:12:00;;;;;;;3.50;1.65;;;34.90;80.60;;;;;;4979351;28;20058;-90
2022/08/13 10:14:26;;;;;;;1.52;1.42;;;35.00;80.30;;;;;;4995960;28;20054;-91
2022/08/13 10:16:54;;;;;;;1.60;1.50;;;34.80;79.20;;;;;;4997415;28;20166;-89
2022/08/13 10:19:20;;;;;;;2.90;1.30;;;34.90;78.80;;;;;;4998733;28;20505;-89
2022/08/13 10:21:47;;;;;;;1.80;1.60;;;34.80;79.40;;;;;;5017938;28;20050;-91
2022/08/13 10:24:14;;;;;;;2.50;1.60;;;35.00;79.80;;;;;;5001911;28;20137;-91
2022/08/13 10:26:40;;;;;;;2.38;1.80;;;35.50;79.10;;;;;;5017258;28;20089;-88
2022/08/13 10:29:09;;;;;;;2.25;1.63;;;35.20;79.30;;;;;;5023105;28;20046;-91
2022/08/13 10:31:35;;;;;;;1.75;1.65;;;35.20;78.80;;;;;;4990019;28;20173;-89
2022/08/13 10:34:03;;;;;;;3.50;1.48;;;34.80;78.40;;;;;;4956208;28;20409;-93
2022/08/13 10:36:29;;;;;;;1.98;1.77;;;34.30;79.10;;;;;;5005271;28;20074;-90
2022/08/13 10:38:56;;;;;;;1.75;1.50;;;34.20;79.20;;;;;;4995644;28;20034;-92
2022/08/13 10:41:21;;;;;;;1.52;1.42;;;33.90;79.60;;;;;;4984382;28;20234;-88
2022/08/13 10:43:48;;;;;;;2.22;1.60;;;33.80;79.00;;;;;;4966592;28;20042;-92
2022/08/13 10:46:16;;;;;;;3.65;1.70;;;33.30;79.70;;;;;;5003399;28;20065;-91
2022/08/13 10:48:46;;;;;;;1.52;1.30;;;33.50;78.60;;;;;;4967427;28;20129;-89
2022/08/13 10:51:22;;;;;;;4.73;1.60;;;33.90;78.50;;;;;;5012113;28;20085;-90
2022/08/13 10:54:00;;;;;;;1.60;1.50;;;33.60;79.40;;;;;;5001055;28;20041;-90
2022/08/13 10:56:32;;;;;;;2.60;1.48;;;33.80;79.70;;;;;;4976243;28;20102;-88
2022/08/13 10:58:59;;;;;;;4.20;1.55;;;33.90;78.90;;;;;;5001790;28;20074;-87
2022/08/13 11:01:26;;;;;;;1.98;1.67;;;34.30;78.50;;;;;;4979150;28;20046;-86
2022/08/13 11:03:55;;;;;;;2.78;1.40;;;34.50;79.50;;;;;;4978953;28;20514;-90
2022/08/13 11:06:26;;;;;;;2.25;1.50;;;34.70;78.50;;;;;;4996370;28;20046;-92
2022/08/13 11:08:54;;;;;;;2.03;1.65;;;34.80;78.00;;;;;;4982628;28;20050;-91
2022/08/13 11:11:20;;;;;;;1.83;1.50;;;33.80;78.00;;;;;;4997605;28;20050;-90
2022/08/13 11:13:48;;;;;;;1.52;1.42;;;34.70;78.20;;;;;;4963698;28;20059;-90
2022/08/13 11:19:14;;;;;;;1.40;1.30;;;34.00;77.30;;;;;;4965249;28;20050;-90
2022/08/13 11:21:41;;;;;;;1.50;1.40;;;33.70;78.00;;;;;;4977847;28;20066;-90
2022/08/13 11:24:07;;;;;;;1.55;1.42;;;33.40;78.10;;;;;;4961765;28;20050;-91
2022/08/13 11:26:32;;;;;;;1.70;1.60;;;33.00;78.00;;;;;;4977248;28;20391;-92
2022/08/13 11:28:58;;;;;;;1.60;1.50;;;33.00;78.20;;;;;;4962293;28;20100;-90
2022/08/13 11:31:24;;;;;;;2.67;1.55;;;33.20;79.10;;;;;;4978193;28;20116;-92
2022/08/13 11:33:49;;;;;;;3.72;1.40;;;33.00;78.30;;;;;;4994758;28;20050;-92
2022/08/13 11:36:15;;;;;;;2.90;1.75;;;32.60;78.90;;;;;;4995278;28;20081;-91
2022/08/13 11:38:41;;;;;;;1.60;1.50;;;32.30;78.50;;;;;;4994457;28;20120;-91
2022/08/13 11:41:07;;;;;;;1.80;1.60;;;32.30;78.80;;;;;;4961502;28;20050;-92
2022/08/13 11:43:33;;;;;;;3.13;1.55;;;32.50;79.50;;;;;;4962607;28;20054;-91
2022/08/13 11:45:59;;;;;;;1.63;1.52;;;32.30;79.00;;;;;;4962166;28;20093;-91
2022/08/13 11:48:27;;;;;;;3.83;1.70;;;32.00;79.80;;;;;;4962919;28;20042;-90
2022/08/13 11:50:55;;;;;;;1.80;1.70;;;32.00;78.10;;;;;;4995626;28;20125;-91
2022/08/13 11:53:21;;;;;;;1.60;1.50;;;32.00;78.00;;;;;;4946834;28;20060;-91
2022/08/13 11:55:47;;;;;;;1.60;1.50;;;32.00;78.40;;;;;;4999383;28;20069;-93
2022/08/13 11:58:13;;;;;;;1.80;1.70;;;31.90;78.90;;;;;;4980234;28;20110;-92
2022/08/13 12:00:40;;;;;;;1.70;1.60;;;32.10;79.80;;;;;;4994588;28;20050;-92
2022/08/13 12:03:05;;;;;;;2.65;1.55;;;32.20;79.60;;;;;;4984192;28;20129;-89
2022/08/13 12:05:31;;;;;;;2.28;1.60;;;32.20;79.30;;;;;;4980723;28;20041;-89
2022/08/13 12:07:57;;;;;;;2.67;1.60;;;32.30;79.20;;;;;;4997979;28;20073;-90
2022/08/13 12:10:23;;;;;;;3.85;1.88;;;32.40;79.60;;;;;;4963107;28;20050;-92
2022/08/13 12:12:48;;;;;;;2.88;1.52;;;32.30;79.80;;;;;;4977330;28;20062;-90
2022/08/13 12:15:14;;;;;;;2.72;1.50;;;32.20;78.90;;;;;;4963633;28;20049;-93
2022/08/13 12:17:42;;;;;;;2.22;1.67;;;32.10;79.10;;;;;;4962590;28;20054;-91
2022/08/13 12:20:10;;;;;;;1.92;1.60;;;31.70;79.20;;;;;;4977404;28;20049;-91
2022/08/13 12:22:36;;;;;;;4.72;1.70;;;32.00;79.00;;;;;;4963333;28;20061;-90
2022/08/13 12:25:01;;;;;;;2.10;1.70;;;31.80;79.20;;;;;;4982510;28;20039;-90
2022/08/13 12:27:27;;;;;;;2.47;1.70;;;32.00;79.20;;;;;;4967656;28;20034;-90
2022/08/13 12:29:53;;;;;;;3.95;1.98;;;32.10;79.10;;;;;;5013302;28;20042;-91
2022/08/13 12:32:18;;;;;;;2.13;1.90;;;32.20;79.20;;;;;;4977069;28;20061;-90
2022/08/13 12:34:45;;;;;;;2.58;1.92;;;32.10;79.40;;;;;;5001952;28;20074;-91
2022/08/13 12:37:10;;;;;;;2.03;1.88;;;32.20;79.90;;;;;;4962196;28;20132;-90
2022/08/13 12:39:36;;;;;;;3.30;1.80;;;32.30;79.50;;;;;;4994102;28;20046;-90
2022/08/13 12:42:02;;;;;;;1.92;1.80;;;32.20;80.10;;;;;;4976370;28;20377;-90
2022/08/13 12:44:27;;;;;;;2.25;1.90;;;32.10;80.10;;;;;;4976940;28;20061;-92
2022/08/13 12:46:53;;;;;;;2.85;1.80;;;32.40;80.30;;;;;;4978617;28;20404;-92
2022/08/13 12:49:19;;;;;;;3.10;2.20;;;32.40;80.40;;;;;;4964288;28;20090;-88
2022/08/13 12:51:44;;;;;;;2.42;2.00;;;32.20;80.10;;;;;;4944054;28;20062;-90
2022/08/13 12:54:10;;;;;;;2.10;1.92;;;32.30;78.80;;;;;;4976381;28;20054;-89
2022/08/13 12:56:37;;;;;;;2.40;1.92;;;32.50;78.80;;;;;;4976027;28;20133;-89
2022/08/13 12:59:03;;;;;;;2.75;1.90;;;32.30;78.70;;;;;;4976129;28;20105;-89
2022/08/13 13:01:30;;;;;;;2.33;2.05;;;32.40;79.10;;;;;;4975845;28;20051;-89
2022/08/13 13:03:55;;;;;;;2.03;1.63;;;32.50;79.00;;;;;;4964811;28;20055;-89
2022/08/13 13:06:21;;;;;;;2.88;2.15;;;32.50;79.50;;;;;;5012378;28;20046;-88
2022/08/13 13:08:48;;;;;;;2.00;1.80;;;32.40;78.30;;;;;;5012360;28;20049;-88